createdAt,value
2018-02-26T00:00:47.626Z,1025.22
2018-02-26T00:01:57.341Z,1025.23
2018-02-26T00:03:07.043Z,1025.25
2018-02-26T00:04:16.747Z,1025.19
2018-02-26T00:05:26.445Z,1025.18
2018-02-26T00:06:36.135Z,1025.18
2018-02-26T00:07:45.829Z,1025.12
2018-02-26T00:08:55.524Z,1025.1
2018-02-26T00:10:04.974Z,1025.17
2018-02-26T00:11:14.417Z,1025.1
2018-02-26T00:12:23.841Z,1025.11
2018-02-26T00:13:33.289Z,1025.1
2018-02-26T00:14:42.984Z,1025.1
2018-02-26T00:15:52.673Z,1025.07
2018-02-26T00:17:02.372Z,1025.08
2018-02-26T00:18:12.322Z,1025.08
2018-02-26T00:19:22.015Z,1025.02
2018-02-26T00:20:31.724Z,1025.07
2018-02-26T00:21:41.442Z,1025.06
2018-02-26T00:22:51.157Z,1025.09
2018-02-26T00:24:01.212Z,1025.11
2018-02-26T00:25:10.903Z,1025.08
2018-02-26T00:26:20.596Z,1025.09
2018-02-26T00:27:30.304Z,1025.11
2018-02-26T00:28:39.998Z,1025.1
2018-02-26T00:29:49.693Z,1025.04
2018-02-26T00:30:59.391Z,1025.06
2018-02-26T00:32:09.347Z,1025.05
2018-02-26T00:33:19.043Z,1025.06
2018-02-26T00:34:28.473Z,1025.03
2018-02-26T00:35:38.638Z,1025.02
2018-02-26T00:36:48.080Z,1025.03
2018-02-26T00:37:57.780Z,1024.93
2018-02-26T00:39:07.219Z,1024.97
2018-02-26T00:40:17.167Z,1025
2018-02-26T00:41:26.868Z,1025
2018-02-26T00:42:36.306Z,1024.97
2018-02-26T00:43:46.008Z,1024.98
2018-02-26T00:44:55.714Z,1024.98
2018-02-26T00:46:05.407Z,1024.97
2018-02-26T00:47:14.841Z,1024.99
2018-02-26T00:48:24.538Z,1025.03
2018-02-26T00:49:33.982Z,1024.98
2018-02-26T00:50:43.681Z,1024.99
2018-02-26T00:51:53.636Z,1024.94
2018-02-26T00:53:03.593Z,1024.93
2018-02-26T00:54:13.030Z,1024.93
2018-02-26T00:55:22.474Z,1024.91
2018-02-26T00:56:31.907Z,1024.92
2018-02-26T00:57:41.852Z,1024.91
2018-02-26T00:58:51.802Z,1024.93
2018-02-26T01:00:01.757Z,1024.89
2018-02-26T01:01:11.446Z,1024.86
2018-02-26T01:02:21.398Z,1024.85
2018-02-26T01:03:31.101Z,1024.93
2018-02-26T01:04:40.531Z,1024.93
2018-02-26T01:05:50.213Z,1024.89
2018-02-26T01:07:00.171Z,1024.95
2018-02-26T01:08:09.875Z,1024.92
2018-02-26T01:09:19.842Z,1024.94
2018-02-26T01:10:29.275Z,1024.9
2018-02-26T01:11:39.275Z,1024.88
2018-02-26T01:12:48.976Z,1024.95
2018-02-26T01:13:58.411Z,1024.94
2018-02-26T01:15:08.388Z,1024.94
2018-02-26T01:16:18.081Z,1024.96
2018-02-26T01:17:27.774Z,1024.97
2018-02-26T01:18:37.456Z,1024.97
2018-02-26T01:19:47.408Z,1024.96
2018-02-26T01:20:56.831Z,1024.92
2018-02-26T01:22:06.532Z,1024.98
2018-02-26T01:23:16.474Z,1024.95
2018-02-26T01:24:26.430Z,1024.91
2018-02-26T01:25:36.435Z,1024.9
2018-02-26T01:26:46.389Z,1024.93
2018-02-26T01:27:56.333Z,1024.93
2018-02-26T01:29:06.032Z,1024.9
2018-02-26T01:30:15.996Z,1024.93
2018-02-26T01:31:25.937Z,1024.92
2018-02-26T01:32:35.888Z,1024.94
2018-02-26T01:33:45.845Z,1024.86
2018-02-26T01:34:55.805Z,1024.89
2018-02-26T01:36:05.502Z,1024.83
2018-02-26T01:37:15.197Z,1024.89
2018-02-26T01:38:24.882Z,1024.87
2018-02-26T01:39:34.580Z,1024.87
2018-02-26T01:40:44.289Z,1024.86
2018-02-26T01:41:53.976Z,1024.89
2018-02-26T01:43:03.148Z,1024.92
2018-02-26T01:44:12.838Z,1024.9
2018-02-26T01:45:22.800Z,1024.89
2018-02-26T01:46:32.797Z,1024.91
2018-02-26T01:47:42.749Z,1024.91
2018-02-26T01:48:52.436Z,1024.89
2018-02-26T01:50:02.131Z,1024.86
2018-02-26T01:51:11.818Z,1024.86
2018-02-26T01:52:21.528Z,1024.91
2018-02-26T01:53:31.484Z,1024.92
2018-02-26T01:54:41.174Z,1024.91
2018-02-26T01:55:50.112Z,1024.93
2018-02-26T01:57:00.066Z,1024.91
2018-02-26T01:58:10.025Z,1024.89
2018-02-26T01:59:19.983Z,1024.87
2018-02-26T02:00:29.419Z,1024.91
2018-02-26T02:01:39.373Z,1024.96
2018-02-26T02:02:48.547Z,1024.96
2018-02-26T02:03:58.241Z,1024.95
2018-02-26T02:05:08.228Z,1024.95
2018-02-26T02:06:18.176Z,1024.9
2018-02-26T02:07:27.619Z,1024.94
2018-02-26T02:08:37.582Z,1024.9
2018-02-26T02:09:47.270Z,1024.92
2018-02-26T02:10:56.956Z,1024.9
2018-02-26T02:12:06.905Z,1024.91
2018-02-26T02:13:16.856Z,1024.88
2018-02-26T02:14:26.552Z,1024.89
2018-02-26T02:15:36.513Z,1024.88
2018-02-26T02:16:46.466Z,1024.9
2018-02-26T02:17:55.906Z,1024.85
2018-02-26T02:19:05.600Z,1024.87
2018-02-26T02:20:15.094Z,1024.86
2018-02-26T02:21:25.037Z,1024.83
2018-02-26T02:22:34.977Z,1024.85
2018-02-26T02:23:44.660Z,1024.81
2018-02-26T02:24:54.606Z,1024.82
2018-02-26T02:26:04.548Z,1024.81
2018-02-26T02:27:14.255Z,1024.77
2018-02-26T02:28:24.205Z,1024.77
2018-02-26T02:29:33.955Z,1024.8
2018-02-26T02:30:43.911Z,1024.79
2018-02-26T02:31:53.613Z,1024.83
2018-02-26T02:33:03.048Z,1024.87
2018-02-26T02:34:12.750Z,1024.86
2018-02-26T02:35:22.716Z,1024.84
2018-02-26T02:36:32.423Z,1024.81
2018-02-26T02:37:41.862Z,1024.77
2018-02-26T02:38:51.838Z,1024.75
2018-02-26T02:40:01.787Z,1024.8
2018-02-26T02:41:11.490Z,1024.77
2018-02-26T02:42:21.196Z,1024.79
2018-02-26T02:43:30.895Z,1024.78
2018-02-26T02:44:40.586Z,1024.78
2018-02-26T02:45:50.653Z,1024.75
2018-02-26T02:47:00.367Z,1024.74
2018-02-26T02:48:10.351Z,1024.78
2018-02-26T02:49:20.050Z,1024.79
2018-02-26T02:50:29.747Z,1024.83
2018-02-26T02:51:39.708Z,1024.83
2018-02-26T02:52:49.657Z,1024.82
2018-02-26T02:53:59.637Z,1024.81
2018-02-26T02:55:09.335Z,1024.83
2018-02-26T02:56:19.050Z,1024.83
2018-02-26T02:57:28.749Z,1024.8
2018-02-26T02:58:38.710Z,1024.8
2018-02-26T02:59:48.147Z,1024.85
2018-02-26T03:00:57.577Z,1024.84
2018-02-26T03:02:07.273Z,1024.85
2018-02-26T03:03:17.229Z,1024.78
2018-02-26T03:04:26.684Z,1024.79
2018-02-26T03:05:36.390Z,1024.79
2018-02-26T03:06:46.361Z,1024.77
2018-02-26T03:07:56.056Z,1024.78
2018-02-26T03:09:05.746Z,1024.79
2018-02-26T03:10:15.688Z,1024.76
2018-02-26T03:11:25.643Z,1024.84
2018-02-26T03:12:35.578Z,1024.79
2018-02-26T03:13:45.535Z,1024.81
2018-02-26T03:14:55.491Z,1024.83
2018-02-26T03:16:05.182Z,1024.86
2018-02-26T03:17:14.405Z,1024.85
2018-02-26T03:18:24.353Z,1024.81
2018-02-26T03:19:34.303Z,1024.82
2018-02-26T03:20:43.734Z,1024.81
2018-02-26T03:21:53.167Z,1024.83
2018-02-26T03:23:03.129Z,1024.88
2018-02-26T03:24:13.070Z,1024.91
2018-02-26T03:25:23.022Z,1024.91
2018-02-26T03:26:32.448Z,1024.91
2018-02-26T03:27:42.130Z,1024.89
2018-02-26T03:28:51.568Z,1024.94
2018-02-26T03:30:01.003Z,1024.95
2018-02-26T03:31:10.961Z,1024.95
2018-02-26T03:32:20.921Z,1024.96
2018-02-26T03:33:30.874Z,1024.98
2018-02-26T03:34:40.566Z,1025
2018-02-26T03:35:50.250Z,1025
2018-02-26T03:37:00.202Z,1024.98
2018-02-26T03:38:09.901Z,1024.94
2018-02-26T03:39:19.600Z,1024.95
2018-02-26T03:40:29.549Z,1024.94
2018-02-26T03:41:39.505Z,1024.91
2018-02-26T03:42:49.207Z,1024.91
2018-02-26T03:43:59.169Z,1024.87
2018-02-26T03:45:09.120Z,1024.89
2018-02-26T03:46:18.811Z,1024.79
2018-02-26T03:47:28.501Z,1024.83
2018-02-26T03:48:38.446Z,1024.87
2018-02-26T03:49:48.392Z,1024.81
2018-02-26T03:50:58.093Z,1024.8
2018-02-26T03:52:07.793Z,1024.83
2018-02-26T03:53:17.748Z,1024.77
2018-02-26T03:54:27.431Z,1024.83
2018-02-26T03:55:36.860Z,1024.82
2018-02-26T03:56:46.806Z,1024.78
2018-02-26T03:57:56.749Z,1024.83
2018-02-26T03:59:06.454Z,1024.77
2018-02-26T04:00:16.407Z,1024.76
2018-02-26T04:01:26.353Z,1024.75
2018-02-26T04:02:36.043Z,1024.75
2018-02-26T04:03:45.734Z,1024.72
2018-02-26T04:04:55.168Z,1024.69
2018-02-26T04:06:05.124Z,1024.7
2018-02-26T04:07:15.072Z,1024.65
2018-02-26T04:08:25.017Z,1024.69
2018-02-26T04:09:34.443Z,1024.67
2018-02-26T04:10:44.148Z,1024.67
2018-02-26T04:11:54.095Z,1024.71
2018-02-26T04:13:03.516Z,1024.7
2018-02-26T04:14:13.203Z,1024.66
2018-02-26T04:15:23.151Z,1024.72
2018-02-26T04:16:33.096Z,1024.74
2018-02-26T04:17:42.790Z,1024.73
2018-02-26T04:18:52.737Z,1024.76
2018-02-26T04:20:02.171Z,1024.82
2018-02-26T04:21:11.870Z,1024.81
2018-02-26T04:22:21.553Z,1024.84
2018-02-26T04:23:31.245Z,1024.79
2018-02-26T04:24:40.667Z,1024.82
2018-02-26T04:25:50.106Z,1024.78
2018-02-26T04:27:00.050Z,1024.76
2018-02-26T04:28:09.750Z,1024.78
2018-02-26T04:29:19.184Z,1024.8
2018-02-26T04:30:28.878Z,1024.8
2018-02-26T04:31:38.577Z,1024.75
2018-02-26T04:32:48.261Z,1024.78
2018-02-26T04:33:57.947Z,1024.81
2018-02-26T04:35:07.950Z,1024.82
2018-02-26T04:36:17.893Z,1024.82
2018-02-26T04:37:27.582Z,1024.87
2018-02-26T04:38:37.266Z,1024.84
2018-02-26T04:39:47.227Z,1024.81
2018-02-26T04:40:56.656Z,1024.85
2018-02-26T04:42:06.608Z,1024.83
2018-02-26T04:43:16.032Z,1024.8
2018-02-26T04:44:25.511Z,1024.8
2018-02-26T04:45:35.457Z,1024.79
2018-02-26T04:46:45.138Z,1024.77
2018-02-26T04:47:54.824Z,1024.71
2018-02-26T04:49:04.513Z,1024.72
2018-02-26T04:50:14.205Z,1024.67
2018-02-26T04:51:23.636Z,1024.65
2018-02-26T04:52:33.333Z,1024.67
2018-02-26T04:53:42.775Z,1024.74
2018-02-26T04:54:52.457Z,1024.72
2018-02-26T04:56:01.896Z,1024.74
2018-02-26T04:57:11.326Z,1024.74
2018-02-26T04:58:21.013Z,1024.72
2018-02-26T04:59:30.724Z,1024.72
2018-02-26T05:00:40.698Z,1024.66
2018-02-26T05:01:49.890Z,1024.67
2018-02-26T05:02:59.854Z,1024.7
2018-02-26T05:04:09.823Z,1024.8
2018-02-26T05:05:19.512Z,1024.79
2018-02-26T05:06:29.215Z,1024.77
2018-02-26T05:07:39.168Z,1024.73
2018-02-26T05:08:49.123Z,1024.75
2018-02-26T05:09:58.817Z,1024.82
2018-02-26T05:11:08.553Z,1024.75
2018-02-26T05:12:17.999Z,1024.76
2018-02-26T05:13:27.681Z,1024.72
2018-02-26T05:14:37.648Z,1024.76
2018-02-26T05:15:47.349Z,1024.72
2018-02-26T05:16:57.040Z,1024.65
2018-02-26T05:18:06.735Z,1024.63
2018-02-26T05:19:16.466Z,1024.65
2018-02-26T05:20:25.898Z,1024.65
2018-02-26T05:21:35.578Z,1024.65
2018-02-26T05:22:45.009Z,1024.62
2018-02-26T05:23:54.697Z,1024.63
2018-02-26T05:25:04.645Z,1024.6
2018-02-26T05:26:14.606Z,1024.59
2018-02-26T05:27:23.783Z,1024.6
2018-02-26T05:28:33.730Z,1024.61
2018-02-26T05:29:43.752Z,1024.6
2018-02-26T05:30:53.898Z,1024.59
2018-02-26T05:32:03.851Z,1024.58
2018-02-26T05:33:13.282Z,1024.55
2018-02-26T05:34:23.237Z,1024.57
2018-02-26T05:35:32.678Z,1024.56
2018-02-26T05:36:42.410Z,1024.58
2018-02-26T05:37:52.110Z,1024.57
2018-02-26T05:39:01.790Z,1024.59
2018-02-26T05:40:11.479Z,1024.62
2018-02-26T05:41:21.170Z,1024.6
2018-02-26T05:42:31.120Z,1024.54
2018-02-26T05:43:40.825Z,1024.56
2018-02-26T05:44:50.780Z,1024.51
2018-02-26T05:46:00.470Z,1024.55
2018-02-26T05:47:10.161Z,1024.56
2018-02-26T05:48:19.852Z,1024.54
2018-02-26T05:49:29.556Z,1024.52
2018-02-26T05:50:39.494Z,1024.5
2018-02-26T05:51:49.441Z,1024.49
2018-02-26T05:52:59.124Z,1024.45
2018-02-26T05:54:08.806Z,1024.42
2018-02-26T05:55:18.619Z,1024.48
2018-02-26T05:56:27.791Z,1024.46
2018-02-26T05:57:37.754Z,1024.46
2018-02-26T05:58:47.710Z,1024.43
2018-02-26T05:59:57.660Z,1024.45
2018-02-26T06:01:07.612Z,1024.48
2018-02-26T06:02:17.318Z,1024.46
2018-02-26T06:03:26.754Z,1024.46
2018-02-26T06:04:36.440Z,1024.47
2018-02-26T06:05:46.393Z,1024.46
2018-02-26T06:06:55.832Z,1024.47
2018-02-26T06:08:05.784Z,1024.45
2018-02-26T06:09:15.725Z,1024.49
2018-02-26T06:10:25.421Z,1024.51
2018-02-26T06:11:35.117Z,1024.48
2018-02-26T06:12:45.069Z,1024.51
2018-02-26T06:13:54.749Z,1024.53
2018-02-26T06:15:04.709Z,1024.6
2018-02-26T06:16:14.664Z,1024.57
2018-02-26T06:17:24.619Z,1024.57
2018-02-26T06:18:34.315Z,1024.55
2018-02-26T06:19:43.999Z,1024.53
2018-02-26T06:20:53.953Z,1024.51
2018-02-26T06:22:03.388Z,1024.43
2018-02-26T06:23:13.348Z,1024.47
2018-02-26T06:24:23.067Z,1024.43
2018-02-26T06:25:32.763Z,1024.4
2018-02-26T06:26:42.200Z,1024.37
2018-02-26T06:27:52.153Z,1024.35
2018-02-26T06:29:01.863Z,1024.33
2018-02-26T06:30:11.542Z,1024.4
2018-02-26T06:31:21.503Z,1024.44
2018-02-26T06:32:31.201Z,1024.47
2018-02-26T06:33:40.894Z,1024.47
2018-02-26T06:34:50.588Z,1024.46
2018-02-26T06:36:00.561Z,1024.48
2018-02-26T06:37:09.994Z,1024.5
2018-02-26T06:38:19.682Z,1024.52
2018-02-26T06:39:28.873Z,1024.54
2018-02-26T06:40:38.845Z,1024.54
2018-02-26T06:41:48.830Z,1024.59
2018-02-26T06:42:58.778Z,1024.57
2018-02-26T06:44:08.453Z,1024.58
2018-02-26T06:45:17.628Z,1024.62
2018-02-26T06:46:27.065Z,1024.64
2018-02-26T06:47:36.766Z,1024.58
2018-02-26T06:48:46.199Z,1024.58
2018-02-26T06:49:55.887Z,1024.61
2018-02-26T06:51:05.846Z,1024.59
2018-02-26T06:52:15.795Z,1024.6
2018-02-26T06:53:25.258Z,1024.6
2018-02-26T06:54:35.208Z,1024.59
2018-02-26T06:55:44.901Z,1024.55
2018-02-26T06:56:54.894Z,1024.57
2018-02-26T06:58:04.853Z,1024.57
2018-02-26T06:59:15.097Z,1024.55
2018-02-26T07:00:24.776Z,1024.53
2018-02-26T07:01:34.481Z,1024.46
2018-02-26T07:02:44.185Z,1024.47
2018-02-26T07:03:53.872Z,1024.39
2018-02-26T07:05:03.836Z,1024.42
2018-02-26T07:06:13.818Z,1024.39
2018-02-26T07:07:23.785Z,1024.37
2018-02-26T07:08:33.222Z,1024.35
2018-02-26T07:09:43.185Z,1024.35
2018-02-26T07:10:52.619Z,1024.34
2018-02-26T07:12:02.583Z,1024.41
2018-02-26T07:13:12.347Z,1024.38
2018-02-26T07:14:21.025Z,1024.4
2018-02-26T07:15:30.988Z,1024.39
2018-02-26T07:16:40.951Z,1024.47
2018-02-26T07:17:50.931Z,1024.45
2018-02-26T07:19:00.118Z,1024.46
2018-02-26T07:20:09.805Z,1024.41
2018-02-26T07:21:19.519Z,1024.42
2018-02-26T07:22:29.267Z,1024.5
2018-02-26T07:23:39.260Z,1024.43
2018-02-26T07:24:48.694Z,1024.4
2018-02-26T07:25:58.178Z,1024.45
2018-02-26T07:27:07.881Z,1024.45
2018-02-26T07:28:17.838Z,1024.49
2018-02-26T07:29:27.647Z,1024.5
2018-02-26T07:30:37.614Z,1024.5
2018-02-26T07:31:47.375Z,1024.5
2018-02-26T07:32:57.542Z,1024.47
2018-02-26T07:34:07.015Z,1024.52
2018-02-26T07:35:16.727Z,1024.47
2018-02-26T07:36:26.441Z,1024.45
2018-02-26T07:37:35.895Z,1024.45
2018-02-26T07:38:45.613Z,1024.42
2018-02-26T07:39:55.357Z,1024.45
2018-02-26T07:41:05.048Z,1024.47
2018-02-26T07:42:14.822Z,1024.45
2018-02-26T07:43:24.799Z,1024.45
2018-02-26T07:44:34.777Z,1024.41
2018-02-26T07:45:44.788Z,1024.44
2018-02-26T07:46:54.791Z,1024.45
2018-02-26T07:48:04.752Z,1024.39
2018-02-26T07:49:14.747Z,1024.46
2018-02-26T07:50:24.739Z,1024.44
2018-02-26T07:51:33.997Z,1024.43
2018-02-26T07:52:43.718Z,1024.44
2018-02-26T07:53:53.706Z,1024.5
2018-02-26T07:55:03.415Z,1024.44
2018-02-26T07:56:13.366Z,1024.44
2018-02-26T07:57:23.112Z,1024.4
2018-02-26T07:58:33.091Z,1024.44
2018-02-26T07:59:42.803Z,1024.43
2018-02-26T08:00:52.770Z,1024.39
2018-02-26T08:02:02.490Z,1024.39
2018-02-26T08:03:12.230Z,1024.39
2018-02-26T08:04:22.206Z,1024.37
2018-02-26T08:05:31.974Z,1024.39
2018-02-26T08:06:41.695Z,1024.43
2018-02-26T08:07:51.804Z,1024.37
2018-02-26T08:09:01.523Z,1024.4
2018-02-26T08:10:11.524Z,1024.38
2018-02-26T08:11:21.515Z,1024.36
2018-02-26T08:12:31.212Z,1024.32
2018-02-26T08:13:40.405Z,1024.26
2018-02-26T08:14:50.383Z,1024.37
2018-02-26T08:16:00.178Z,1024.35
2018-02-26T08:17:10.068Z,1024.4
2018-02-26T08:18:20.082Z,1024.4
2018-02-26T08:19:29.785Z,1024.33
2018-02-26T08:20:39.779Z,1024.34
2018-02-26T08:21:49.732Z,1024.25
2018-02-26T08:22:59.433Z,1024.25
2018-02-26T08:24:09.415Z,1024.22
2018-02-26T08:25:19.372Z,1024.27
2018-02-26T08:26:29.101Z,1024.25
2018-02-26T08:27:38.877Z,1024.13
2018-02-26T08:28:48.872Z,1024.18
2018-02-26T08:29:58.591Z,1024.16
2018-02-26T08:31:08.652Z,1024.13
2018-02-26T08:32:18.362Z,1024.17
2018-02-26T08:33:28.341Z,1024.13
2018-02-26T08:34:38.530Z,1024.11
2018-02-26T08:35:48.239Z,1024.15
2018-02-26T08:36:57.986Z,1024.07
2018-02-26T08:38:07.769Z,1024.09
2018-02-26T08:39:18.101Z,1024.07
2018-02-26T08:40:28.090Z,1024.11
2018-02-26T08:41:38.049Z,1024.03
2018-02-26T08:42:47.751Z,1023.99
2018-02-26T08:43:57.256Z,1023.99
2018-02-26T08:45:06.981Z,1024.05
2018-02-26T08:46:16.431Z,1023.95
2018-02-26T08:47:25.892Z,1023.92
2018-02-26T08:48:35.584Z,1023.93
2018-02-26T08:49:45.302Z,1023.93
2018-02-26T08:50:55.272Z,1023.93
2018-02-26T08:52:05.002Z,1023.95
2018-02-26T08:53:14.970Z,1023.91
2018-02-26T08:54:24.696Z,1023.91
2018-02-26T08:55:34.189Z,1023.97
2018-02-26T08:56:43.655Z,1023.96
2018-02-26T08:57:53.627Z,1023.89
2018-02-26T08:59:03.362Z,1023.93
2018-02-26T09:00:13.076Z,1023.9
2018-02-26T09:01:22.799Z,1023.88
2018-02-26T09:02:32.551Z,1023.88
2018-02-26T09:03:42.249Z,1023.87
2018-02-26T09:04:52.014Z,1023.88
2018-02-26T09:06:02.006Z,1023.89
2018-02-26T09:07:11.718Z,1023.9
2018-02-26T09:08:21.678Z,1023.87
2018-02-26T09:09:31.681Z,1023.79
2018-02-26T09:10:41.780Z,1023.79
2018-02-26T09:11:51.789Z,1023.87
2018-02-26T09:13:01.241Z,1023.87
2018-02-26T09:14:11.229Z,1023.79
2018-02-26T09:15:21.029Z,1023.82
2018-02-26T09:16:31.027Z,1023.75
2018-02-26T09:17:41.017Z,1023.85
2018-02-26T09:18:50.744Z,1023.81
2018-02-26T09:20:00.468Z,1023.79
2018-02-26T09:21:10.458Z,1023.79
2018-02-26T09:22:20.439Z,1023.75
2018-02-26T09:23:29.656Z,1023.68
2018-02-26T09:24:39.366Z,1023.71
2018-02-26T09:25:48.814Z,1023.73
2018-02-26T09:26:58.796Z,1023.73
2018-02-26T09:28:08.556Z,1023.74
2018-02-26T09:29:18.279Z,1023.75
2018-02-26T09:30:28.262Z,1023.7
2018-02-26T09:31:37.971Z,1023.74
2018-02-26T09:32:47.957Z,1023.72
2018-02-26T09:33:57.680Z,1023.68
2018-02-26T09:35:07.665Z,1023.7
2018-02-26T09:36:17.136Z,1023.68
2018-02-26T09:37:27.180Z,1023.64
2018-02-26T09:38:36.103Z,1023.65
2018-02-26T09:39:46.104Z,1023.62
2018-02-26T09:40:56.108Z,1023.55
2018-02-26T09:42:06.094Z,1023.64
2018-02-26T09:43:16.069Z,1023.57
2018-02-26T09:44:25.787Z,1023.56
2018-02-26T09:45:35.978Z,1023.6
2018-02-26T09:46:45.959Z,1023.61
2018-02-26T09:47:55.695Z,1023.61
2018-02-26T09:49:05.758Z,1023.59
2018-02-26T09:50:15.206Z,1023.58
2018-02-26T09:51:25.198Z,1023.51
2018-02-26T09:52:34.655Z,1023.55
2018-02-26T09:53:44.629Z,1023.5
2018-02-26T09:54:54.597Z,1023.47
2018-02-26T09:56:04.311Z,1023.46
2018-02-26T09:57:14.281Z,1023.47
2018-02-26T09:58:23.744Z,1023.45
2018-02-26T09:59:33.725Z,1023.48
2018-02-26T10:00:43.456Z,1023.43
2018-02-26T10:01:53.310Z,1023.52
2018-02-26T10:03:03.306Z,1023.49
2018-02-26T10:04:13.042Z,1023.47
2018-02-26T10:05:23.029Z,1023.45
2018-02-26T10:06:32.553Z,1023.49
2018-02-26T10:07:42.568Z,1023.5
2018-02-26T10:08:52.030Z,1023.49
2018-02-26T10:10:01.752Z,1023.44
2018-02-26T10:11:11.522Z,1023.41
2018-02-26T10:12:21.501Z,1023.37
2018-02-26T10:13:31.545Z,1023.45
2018-02-26T10:14:41.231Z,1023.41
2018-02-26T10:15:51.009Z,1023.46
2018-02-26T10:17:00.981Z,1023.32
2018-02-26T10:18:10.940Z,1023.32
2018-02-26T10:19:20.920Z,1023.3
2018-02-26T10:20:30.798Z,1023.32
2018-02-26T10:21:40.253Z,1023.31
2018-02-26T10:22:49.954Z,1023.27
2018-02-26T10:23:59.922Z,1023.31
2018-02-26T10:25:09.642Z,1023.29
2018-02-26T10:26:19.547Z,1023.24
2018-02-26T10:27:29.330Z,1023.27
2018-02-26T10:28:39.292Z,1023.27
2018-02-26T10:29:48.758Z,1023.19
2018-02-26T10:30:58.236Z,1023.24
2018-02-26T10:32:07.985Z,1023.28
2018-02-26T10:33:17.964Z,1023.3
2018-02-26T10:34:27.931Z,1023.25
2018-02-26T10:35:37.890Z,1023.25
2018-02-26T10:36:47.864Z,1023.3
2018-02-26T10:37:57.575Z,1023.3
2018-02-26T10:39:06.773Z,1023.23
2018-02-26T10:40:16.511Z,1023.18
2018-02-26T10:41:26.489Z,1023.17
2018-02-26T10:42:36.215Z,1023.19
2018-02-26T10:43:45.916Z,1023.22
2018-02-26T10:44:55.113Z,1023.2
2018-02-26T10:46:04.852Z,1023.18
2018-02-26T10:47:14.045Z,1023.18
2018-02-26T10:48:23.765Z,1023.17
2018-02-26T10:49:33.743Z,1023.13
2018-02-26T10:50:43.207Z,1023.07
2018-02-26T10:51:52.661Z,1023.11
2018-02-26T10:53:02.442Z,1023.15
2018-02-26T10:54:11.914Z,1023.11
2018-02-26T10:55:21.104Z,1023.14
2018-02-26T10:56:30.861Z,1023.21
2018-02-26T10:57:40.850Z,1023.14
2018-02-26T10:58:50.843Z,1023.04
2018-02-26T11:00:00.302Z,1023.1
2018-02-26T11:01:10.286Z,1023.08
2018-02-26T11:02:20.276Z,1023.1
2018-02-26T11:03:30.281Z,1023.06
2018-02-26T11:04:39.994Z,1023.03
2018-02-26T11:05:49.982Z,1023.09
2018-02-26T11:06:59.701Z,1023.07
2018-02-26T11:08:09.416Z,1023.06
2018-02-26T11:09:19.139Z,1023.05
2018-02-26T11:10:28.856Z,1023
2018-02-26T11:11:38.304Z,1022.93
2018-02-26T11:12:47.746Z,1022.96
2018-02-26T11:13:57.710Z,1022.98
2018-02-26T11:15:07.692Z,1023.01
2018-02-26T11:16:17.416Z,1022.99
2018-02-26T11:17:27.134Z,1022.96
2018-02-26T11:18:36.627Z,1022.97
2018-02-26T11:19:46.096Z,1023.04
2018-02-26T11:20:55.826Z,1023
2018-02-26T11:22:05.299Z,1022.89
2018-02-26T11:23:15.281Z,1022.96
2018-02-26T11:24:24.994Z,1022.97
2018-02-26T11:25:34.968Z,1022.95
2018-02-26T11:26:44.729Z,1022.88
2018-02-26T11:27:54.456Z,1022.88
2018-02-26T11:29:04.435Z,1022.85
2018-02-26T11:30:14.570Z,1022.92
2018-02-26T11:31:24.033Z,1022.86
2018-02-26T11:32:33.506Z,1022.77
2018-02-26T11:33:43.225Z,1022.82
2018-02-26T11:34:52.937Z,1022.8
2018-02-26T11:36:02.919Z,1022.77
2018-02-26T11:37:12.656Z,1022.69
2018-02-26T11:38:22.370Z,1022.68
2018-02-26T11:39:32.095Z,1022.74
2018-02-26T11:40:41.805Z,1022.68
2018-02-26T11:41:51.774Z,1022.66
2018-02-26T11:43:01.500Z,1022.67
2018-02-26T11:44:11.211Z,1022.62
2018-02-26T11:45:20.930Z,1022.62
2018-02-26T11:46:30.909Z,1022.63
2018-02-26T11:47:40.620Z,1022.63
2018-02-26T11:48:50.389Z,1022.67
2018-02-26T11:50:00.193Z,1022.65
2018-02-26T11:51:09.935Z,1022.65
2018-02-26T11:52:19.903Z,1022.63
2018-02-26T11:53:29.871Z,1022.64
2018-02-26T11:54:39.575Z,1022.59
2018-02-26T11:55:49.570Z,1022.56
2018-02-26T11:56:59.310Z,1022.64
2018-02-26T11:58:09.275Z,1022.66
2018-02-26T11:59:19.002Z,1022.59
2018-02-26T12:00:28.963Z,1022.61
2018-02-26T12:01:38.404Z,1022.54
2018-02-26T12:02:47.614Z,1022.57
2018-02-26T12:03:57.584Z,1022.52
2018-02-26T12:05:07.347Z,1022.55
2018-02-26T12:06:16.815Z,1022.53
2018-02-26T12:07:26.800Z,1022.5
2018-02-26T12:08:36.598Z,1022.47
2018-02-26T12:09:46.318Z,1022.51
2018-02-26T12:10:55.248Z,1022.55
2018-02-26T12:12:05.243Z,1022.47
2018-02-26T12:13:15.232Z,1022.42
2018-02-26T12:14:25.209Z,1022.42
2018-02-26T12:15:34.649Z,1022.51
2018-02-26T12:16:44.388Z,1022.47
2018-02-26T12:17:54.108Z,1022.42
2018-02-26T12:19:04.086Z,1022.49
2018-02-26T12:20:13.556Z,1022.44
2018-02-26T12:21:22.866Z,1022.32
2018-02-26T12:22:32.314Z,1022.39
2018-02-26T12:23:42.292Z,1022.29
2018-02-26T12:24:52.279Z,1022.39
2018-02-26T12:26:02.252Z,1022.4
2018-02-26T12:27:12.241Z,1022.35
2018-02-26T12:28:21.959Z,1022.42
2018-02-26T12:29:31.937Z,1022.38
2018-02-26T12:30:41.910Z,1022.28
2018-02-26T12:31:51.621Z,1022.21
2018-02-26T12:33:01.606Z,1022.28
2018-02-26T12:34:11.058Z,1022.28
2018-02-26T12:35:21.048Z,1022.28
2018-02-26T12:36:30.788Z,1022.22
2018-02-26T12:37:40.756Z,1022.23
2018-02-26T12:38:50.810Z,1022.24
2018-02-26T12:40:00.531Z,1022.2
2018-02-26T12:41:10.507Z,1022.17
2018-02-26T12:42:20.222Z,1022.17
2018-02-26T12:43:29.928Z,1022.16
2018-02-26T12:44:39.121Z,1022.11
2018-02-26T12:45:48.727Z,1022.09
2018-02-26T12:46:58.178Z,1022.12
2018-02-26T12:48:08.165Z,1022.14
2018-02-26T12:49:17.878Z,1022.04
2018-02-26T12:50:27.585Z,1022.08
2018-02-26T12:51:37.563Z,1021.95
2018-02-26T12:52:47.582Z,1021.97
2018-02-26T12:53:57.558Z,1022
2018-02-26T12:55:07.274Z,1021.9
2018-02-26T12:56:17.244Z,1021.98
2018-02-26T12:57:27.207Z,1021.93
2018-02-26T12:58:36.918Z,1021.91
2018-02-26T12:59:46.885Z,1021.9
2018-02-26T13:00:56.616Z,1021.93
2018-02-26T13:02:06.374Z,1021.96
2018-02-26T13:03:16.105Z,1022
2018-02-26T13:04:26.065Z,1022.02
2018-02-26T13:05:35.789Z,1021.97
2018-02-26T13:06:45.789Z,1021.93
2018-02-26T13:07:55.282Z,1021.91
2018-02-26T13:09:05.265Z,1021.94
2018-02-26T13:10:14.980Z,1021.91
2018-02-26T13:11:24.936Z,1021.94
2018-02-26T13:12:34.662Z,1021.84
2018-02-26T13:13:44.365Z,1021.88
2018-02-26T13:14:54.417Z,1021.87
2018-02-26T13:16:03.636Z,1021.84
2018-02-26T13:17:13.079Z,1021.84
2018-02-26T13:18:22.798Z,1021.81
2018-02-26T13:19:32.761Z,1021.72
2018-02-26T13:20:42.477Z,1021.69
2018-02-26T13:21:52.682Z,1021.72
2018-02-26T13:23:02.639Z,1021.69
2018-02-26T13:24:12.617Z,1021.71
2018-02-26T13:25:22.585Z,1021.69
2018-02-26T13:26:32.563Z,1021.7
2018-02-26T13:27:42.532Z,1021.63
2018-02-26T13:28:52.357Z,1021.64
2018-02-26T13:30:02.337Z,1021.64
2018-02-26T13:31:12.329Z,1021.69
2018-02-26T13:32:22.300Z,1021.66
2018-02-26T13:33:32.261Z,1021.65
2018-02-26T13:34:42.252Z,1021.63
2018-02-26T13:35:52.292Z,1021.73
2018-02-26T13:37:01.483Z,1021.71
2018-02-26T13:38:11.191Z,1021.7
2018-02-26T13:39:21.170Z,1021.71
2018-02-26T13:40:30.875Z,1021.73
2018-02-26T13:41:40.592Z,1021.7
2018-02-26T13:42:50.301Z,1021.72
2018-02-26T13:44:00.010Z,1021.7
2018-02-26T13:45:09.710Z,1021.68
2018-02-26T13:46:19.677Z,1021.64
2018-02-26T13:47:29.655Z,1021.67
2018-02-26T13:48:39.372Z,1021.68
2018-02-26T13:49:49.079Z,1021.6
2018-02-26T13:50:59.046Z,1021.62
2018-02-26T13:52:09.024Z,1021.66
2018-02-26T13:53:19.016Z,1021.59
2018-02-26T13:54:28.979Z,1021.6
2018-02-26T13:55:38.707Z,1021.61
2018-02-26T13:56:48.678Z,1021.6
2018-02-26T13:57:58.679Z,1021.61
2018-02-26T13:59:08.402Z,1021.56
2018-02-26T14:00:18.376Z,1021.53
2018-02-26T14:01:28.343Z,1021.43
2018-02-26T14:02:38.060Z,1021.43
2018-02-26T14:03:48.050Z,1021.5
2018-02-26T14:04:58.039Z,1021.5
2018-02-26T14:06:08.029Z,1021.54
2018-02-26T14:07:17.818Z,1021.58